sensor_id;sensor_type;location;lat;lon;timestamp;temperature;humidity
3075;DHT22;1548;51.716;8.748;2022-12-24T00:01:59;10.20;84.40
3075;DHT22;1548;51.716;8.748;2022-12-24T00:04:25;10.20;84.40
3075;DHT22;1548;51.716;8.748;2022-12-24T00:06:50;10.10;84.40
3075;DHT22;1548;51.716;8.748;2022-12-24T00:09:16;10.00;84.50
3075;DHT22;1548;51.716;8.748;2022-12-24T00:11:41;10.00;84.40
3075;DHT22;1548;51.716;8.748;2022-12-24T00:14:07;10.00;84.30
3075;DHT22;1548;51.716;8.748;2022-12-24T00:16:33;10.00;84.30
3075;DHT22;1548;51.716;8.748;2022-12-24T00:18:58;10.00;84.20
3075;DHT22;1548;51.716;8.748;2022-12-24T00:21:24;10.00;84.30
3075;DHT22;1548;51.716;8.748;2022-12-24T00:23:49;9.90;84.20
3075;DHT22;1548;51.716;8.748;2022-12-24T00:26:15;9.90;84.20
3075;DHT22;1548;51.716;8.748;2022-12-24T00:28:41;9.80;84.10
3075;DHT22;1548;51.716;8.748;2022-12-24T00:31:12;9.80;84.20
3075;DHT22;1548;51.716;8.748;2022-12-24T00:33:38;9.80;84.10
3075;DHT22;1548;51.716;8.748;2022-12-24T00:36:05;9.80;84.10
3075;DHT22;1548;51.716;8.748;2022-12-24T00:38:30;9.80;84.20
3075;DHT22;1548;51.716;8.748;2022-12-24T00:41:00;9.80;84.30
3075;DHT22;1548;51.716;8.748;2022-12-24T00:43:27;9.80;84.30
3075;DHT22;1548;51.716;8.748;2022-12-24T00:45:52;9.80;84.30
3075;DHT22;1548;51.716;8.748;2022-12-24T00:48:18;9.80;84.40
3075;DHT22;1548;51.716;8.748;2022-12-24T00:50:43;9.80;84.40
3075;DHT22;1548;51.716;8.748;2022-12-24T00:53:09;9.80;84.50
3075;DHT22;1548;51.716;8.748;2022-12-24T00:55:35;9.80;84.40
3075;DHT22;1548;51.716;8.748;2022-12-24T00:58:00;9.90;84.50
3075;DHT22;1548;51.716;8.748;2022-12-24T01:00:26;9.90;84.40
3075;DHT22;1548;51.716;8.748;2022-12-24T01:02:55;9.80;84.50
3075;DHT22;1548;51.716;8.748;2022-12-24T01:05:20;9.80;84.40
3075;DHT22;1548;51.716;8.748;2022-12-24T01:07:47;9.80;84.40
3075;DHT22;1548;51.716;8.748;2022-12-24T01:10:16;9.80;84.40
3075;DHT22;1548;51.716;8.748;2022-12-24T01:12:43;9.80;84.40
3075;DHT22;1548;51.716;8.748;2022-12-24T01:15:09;9.80;84.30
3075;DHT22;1548;51.716;8.748;2022-12-24T01:17:35;9.80;84.60
3075;DHT22;1548;51.716;8.748;2022-12-24T01:20:03;9.80;84.40
3075;DHT22;1548;51.716;8.748;2022-12-24T01:22:30;9.80;84.50
3075;DHT22;1548;51.716;8.748;2022-12-24T01:24:55;9.70;84.70
3075;DHT22;1548;51.716;8.748;2022-12-24T01:27:21;9.80;84.60
3075;DHT22;1548;51.716;8.748;2022-12-24T01:29:46;9.80;85.20
3075;DHT22;1548;51.716;8.748;2022-12-24T01:32:12;9.80;84.70
3075;DHT22;1548;51.716;8.748;2022-12-24T01:34:37;9.80;84.70
3075;DHT22;1548;51.716;8.748;2022-12-24T01:37:03;9.80;84.60
3075;DHT22;1548;51.716;8.748;2022-12-24T01:39:29;9.80;84.60
3075;DHT22;1548;51.716;8.748;2022-12-24T01:41:54;9.80;84.60
3075;DHT22;1548;51.716;8.748;2022-12-24T01:44:41;9.80;84.50
3075;DHT22;1548;51.716;8.748;2022-12-24T01:49:32;9.80;84.50
3075;DHT22;1548;51.716;8.748;2022-12-24T01:52:14;9.80;84.50
3075;DHT22;1548;51.716;8.748;2022-12-24T01:54:49;9.80;84.60
3075;DHT22;1548;51.716;8.748;2022-12-24T01:57:22;9.70;84.50
3075;DHT22;1548;51.716;8.748;2022-12-24T01:59:52;9.70;84.40
3075;DHT22;1548;51.716;8.748;2022-12-24T02:02:20;9.70;84.40
3075;DHT22;1548;51.716;8.748;2022-12-24T02:07:15;9.70;84.40
3075;DHT22;1548;51.716;8.748;2022-12-24T02:09:41;9.70;84.40
3075;DHT22;1548;51.716;8.748;2022-12-24T02:12:07;9.70;84.40
3075;DHT22;1548;51.716;8.748;2022-12-24T02:14:34;9.70;84.40
3075;DHT22;1548;51.716;8.748;2022-12-24T02:31:51;9.80;84.50
3075;DHT22;1548;51.716;8.748;2022-12-24T02:34:35;9.80;84.60
3075;DHT22;1548;51.716;8.748;2022-12-24T02:37:07;9.80;84.80
3075;DHT22;1548;51.716;8.748;2022-12-24T02:39:51;9.80;84.70
3075;DHT22;1548;51.716;8.748;2022-12-24T02:42:26;9.90;84.50
3075;DHT22;1548;51.716;8.748;2022-12-24T02:45:01;9.80;84.60
3075;DHT22;1548;51.716;8.748;2022-12-24T02:47:29;9.90;84.60
3075;DHT22;1548;51.716;8.748;2022-12-24T02:49:55;9.90;84.40
3075;DHT22;1548;51.716;8.748;2022-12-24T02:52:33;9.90;84.40
3075;DHT22;1548;51.716;8.748;2022-12-24T02:55:02;10.00;84.40
3075;DHT22;1548;51.716;8.748;2022-12-24T03:09:24;9.90;84.40
3075;DHT22;1548;51.716;8.748;2022-12-24T03:12:07;9.80;84.00
3075;DHT22;1548;51.716;8.748;2022-12-24T03:14:35;9.80;84.30
3075;DHT22;1548;51.716;8.748;2022-12-24T03:17:02;9.80;84.30
3075;DHT22;1548;51.716;8.748;2022-12-24T03:19:28;9.80;84.30
3075;DHT22;1548;51.716;8.748;2022-12-24T03:21:57;9.80;84.30
3075;DHT22;1548;51.716;8.748;2022-12-24T03:24:23;9.80;84.20
3075;DHT22;1548;51.716;8.748;2022-12-24T03:26:50;9.80;84.20
3075;DHT22;1548;51.716;8.748;2022-12-24T03:29:17;9.80;84.30
3075;DHT22;1548;51.716;8.748;2022-12-24T03:31:45;9.80;84.30
3075;DHT22;1548;51.716;8.748;2022-12-24T03:34:11;9.80;84.20
3075;DHT22;1548;51.716;8.748;2022-12-24T03:36:37;9.80;84.40
3075;DHT22;1548;51.716;8.748;2022-12-24T03:39:04;9.80;84.30
3075;DHT22;1548;51.716;8.748;2022-12-24T03:41:30;9.80;84.30
3075;DHT22;1548;51.716;8.748;2022-12-24T03:43:56;9.80;84.50
3075;DHT22;1548;51.716;8.748;2022-12-24T03:46:21;9.80;84.50
3075;DHT22;1548;51.716;8.748;2022-12-24T03:48:47;9.80;84.30
3075;DHT22;1548;51.716;8.748;2022-12-24T03:51:17;9.80;84.40
3075;DHT22;1548;51.716;8.748;2022-12-24T03:53:43;9.80;84.20
3075;DHT22;1548;51.716;8.748;2022-12-24T03:56:09;9.80;84.20
3075;DHT22;1548;51.716;8.748;2022-12-24T03:58:34;9.80;84.40
3075;DHT22;1548;51.716;8.748;2022-12-24T04:01:00;9.80;84.30
3075;DHT22;1548;51.716;8.748;2022-12-24T04:03:28;9.80;84.10
3075;DHT22;1548;51.716;8.748;2022-12-24T04:06:02;9.80;84.30
3075;DHT22;1548;51.716;8.748;2022-12-24T04:08:28;9.80;84.60
3075;DHT22;1548;51.716;8.748;2022-12-24T04:10:54;9.70;84.40
3075;DHT22;1548;51.716;8.748;2022-12-24T04:13:20;9.80;84.30
3075;DHT22;1548;51.716;8.748;2022-12-24T04:15:56;9.70;84.20
3075;DHT22;1548;51.716;8.748;2022-12-24T04:18:25;9.70;84.20
3075;DHT22;1548;51.716;8.748;2022-12-24T04:20:51;9.80;84.60
3075;DHT22;1548;51.716;8.748;2022-12-24T04:23:17;9.80;84.10
3075;DHT22;1548;51.716;8.748;2022-12-24T04:25:42;9.70;84.40
3075;DHT22;1548;51.716;8.748;2022-12-24T04:28:08;9.70;84.20
3075;DHT22;1548;51.716;8.748;2022-12-24T04:30:33;9.70;84.30
3075;DHT22;1548;51.716;8.748;2022-12-24T04:32:59;9.70;84.10
3075;DHT22;1548;51.716;8.748;2022-12-24T04:35:24;9.70;84.10
3075;DHT22;1548;51.716;8.748;2022-12-24T04:37:50;9.70;84.20
3075;DHT22;1548;51.716;8.748;2022-12-24T04:40:16;9.70;84.20
3075;DHT22;1548;51.716;8.748;2022-12-24T04:42:41;9.70;84.40
3075;DHT22;1548;51.716;8.748;2022-12-24T04:45:07;9.60;84.00
3075;DHT22;1548;51.716;8.748;2022-12-24T04:47:33;9.60;84.10
3075;DHT22;1548;51.716;8.748;2022-12-24T04:49:59;9.60;84.00
3075;DHT22;1548;51.716;8.748;2022-12-24T04:52:26;9.60;83.90
3075;DHT22;1548;51.716;8.748;2022-12-24T04:54:51;9.60;84.10
3075;DHT22;1548;51.716;8.748;2022-12-24T04:57:17;9.60;84.10
3075;DHT22;1548;51.716;8.748;2022-12-24T04:59:43;9.60;84.10
3075;DHT22;1548;51.716;8.748;2022-12-24T05:02:08;9.50;84.00
3075;DHT22;1548;51.716;8.748;2022-12-24T05:04:34;9.50;84.10
3075;DHT22;1548;51.716;8.748;2022-12-24T05:07:00;9.50;84.20
3075;DHT22;1548;51.716;8.748;2022-12-24T05:09:25;9.50;84.20
3075;DHT22;1548;51.716;8.748;2022-12-24T05:11:51;9.50;84.20
3075;DHT22;1548;51.716;8.748;2022-12-24T05:14:17;9.40;84.20
3075;DHT22;1548;51.716;8.748;2022-12-24T05:16:42;9.40;84.20
3075;DHT22;1548;51.716;8.748;2022-12-24T05:19:08;9.30;84.20
3075;DHT22;1548;51.716;8.748;2022-12-24T05:21:34;9.30;84.10
3075;DHT22;1548;51.716;8.748;2022-12-24T05:23:59;9.30;84.20
3075;DHT22;1548;51.716;8.748;2022-12-24T05:26:48;9.30;84.20
3075;DHT22;1548;51.716;8.748;2022-12-24T05:29:15;9.40;84.20
3075;DHT22;1548;51.716;8.748;2022-12-24T05:31:41;9.40;84.20
3075;DHT22;1548;51.716;8.748;2022-12-24T05:34:08;9.40;84.20
3075;DHT22;1548;51.716;8.748;2022-12-24T05:36:35;9.50;84.20
3075;DHT22;1548;51.716;8.748;2022-12-24T05:39:01;9.50;84.20
3075;DHT22;1548;51.716;8.748;2022-12-24T05:41:27;9.50;84.20
3075;DHT22;1548;51.716;8.748;2022-12-24T05:43:53;9.50;84.20
3075;DHT22;1548;51.716;8.748;2022-12-24T05:46:20;9.50;84.40
3075;DHT22;1548;51.716;8.748;2022-12-24T05:48:46;9.50;84.10
3075;DHT22;1548;51.716;8.748;2022-12-24T05:51:13;9.50;84.20
3075;DHT22;1548;51.716;8.748;2022-12-24T05:53:39;9.50;84.20
3075;DHT22;1548;51.716;8.748;2022-12-24T05:56:07;9.60;84.10
3075;DHT22;1548;51.716;8.748;2022-12-24T05:58:34;9.60;84.10
3075;DHT22;1548;51.716;8.748;2022-12-24T06:01:00;9.50;84.20
3075;DHT22;1548;51.716;8.748;2022-12-24T06:03:27;9.50;84.10
3075;DHT22;1548;51.716;8.748;2022-12-24T06:06:00;9.60;84.10
3075;DHT22;1548;51.716;8.748;2022-12-24T06:08:26;9.50;84.20
3075;DHT22;1548;51.716;8.748;2022-12-24T06:10:57;9.60;84.20
3075;DHT22;1548;51.716;8.748;2022-12-24T06:13:23;9.60;84.10
3075;DHT22;1548;51.716;8.748;2022-12-24T06:15:48;9.50;84.00
3075;DHT22;1548;51.716;8.748;2022-12-24T06:18:14;9.40;83.90
3075;DHT22;1548;51.716;8.748;2022-12-24T06:20:40;9.30;84.00
3075;DHT22;1548;51.716;8.748;2022-12-24T06:23:05;9.20;84.00
3075;DHT22;1548;51.716;8.748;2022-12-24T06:25:31;9.00;83.80
3075;DHT22;1548;51.716;8.748;2022-12-24T06:27:56;8.90;83.80
3075;DHT22;1548;51.716;8.748;2022-12-24T06:30:22;8.90;83.90
3075;DHT22;1548;51.716;8.748;2022-12-24T06:32:48;8.90;83.90
3075;DHT22;1548;51.716;8.748;2022-12-24T06:35:14;9.00;84.00
3075;DHT22;1548;51.716;8.748;2022-12-24T06:37:40;9.00;84.00
3075;DHT22;1548;51.716;8.748;2022-12-24T06:40:06;9.00;84.00
3075;DHT22;1548;51.716;8.748;2022-12-24T06:42:31;9.00;84.10
3075;DHT22;1548;51.716;8.748;2022-12-24T06:44:57;8.90;84.10
3075;DHT22;1548;51.716;8.748;2022-12-24T06:47:23;9.00;84.10
3075;DHT22;1548;51.716;8.748;2022-12-24T06:49:48;9.00;84.20
3075;DHT22;1548;51.716;8.748;2022-12-24T06:52:14;9.10;84.10
3075;DHT22;1548;51.716;8.748;2022-12-24T06:54:39;9.10;84.10
3075;DHT22;1548;51.716;8.748;2022-12-24T06:57:05;9.20;84.20
3075;DHT22;1548;51.716;8.748;2022-12-24T06:59:31;9.20;84.20
3075;DHT22;1548;51.716;8.748;2022-12-24T07:01:57;9.20;84.40
3075;DHT22;1548;51.716;8.748;2022-12-24T07:04:22;9.20;84.40
3075;DHT22;1548;51.716;8.748;2022-12-24T07:06:48;9.20;84.30
3075;DHT22;1548;51.716;8.748;2022-12-24T07:09:14;9.20;84.30
3075;DHT22;1548;51.716;8.748;2022-12-24T07:11:39;9.20;84.30
3075;DHT22;1548;51.716;8.748;2022-12-24T07:14:05;9.20;84.30
3075;DHT22;1548;51.716;8.748;2022-12-24T07:16:34;9.10;84.20
3075;DHT22;1548;51.716;8.748;2022-12-24T07:18:59;9.20;84.20
3075;DHT22;1548;51.716;8.748;2022-12-24T07:21:25;9.30;84.30
3075;DHT22;1548;51.716;8.748;2022-12-24T07:23:50;9.30;84.40
3075;DHT22;1548;51.716;8.748;2022-12-24T07:26:16;9.30;84.20
3075;DHT22;1548;51.716;8.748;2022-12-24T07:28:41;9.40;84.40
3075;DHT22;1548;51.716;8.748;2022-12-24T07:31:07;9.40;84.40
3075;DHT22;1548;51.716;8.748;2022-12-24T07:33:32;9.40;84.60
3075;DHT22;1548;51.716;8.748;2022-12-24T07:36:06;9.30;84.40
3075;DHT22;1548;51.716;8.748;2022-12-24T07:38:32;9.40;84.40
3075;DHT22;1548;51.716;8.748;2022-12-24T07:40:59;9.40;84.40
3075;DHT22;1548;51.716;8.748;2022-12-24T07:43:26;9.50;84.40
3075;DHT22;1548;51.716;8.748;2022-12-24T07:45:56;9.50;84.50
3075;DHT22;1548;51.716;8.748;2022-12-24T07:48:22;9.40;84.40
3075;DHT22;1548;51.716;8.748;2022-12-24T07:50:49;9.40;84.40
3075;DHT22;1548;51.716;8.748;2022-12-24T07:53:14;9.50;84.40
3075;DHT22;1548;51.716;8.748;2022-12-24T07:55:40;9.50;84.40
3075;DHT22;1548;51.716;8.748;2022-12-24T07:58:06;9.50;84.40
3075;DHT22;1548;51.716;8.748;2022-12-24T08:00:31;9.60;84.40
3075;DHT22;1548;51.716;8.748;2022-12-24T08:02:57;9.60;84.40
3075;DHT22;1548;51.716;8.748;2022-12-24T08:05:25;9.60;84.40
3075;DHT22;1548;51.716;8.748;2022-12-24T08:07:51;9.50;84.60
3075;DHT22;1548;51.716;8.748;2022-12-24T08:10:17;9.50;84.50
3075;DHT22;1548;51.716;8.748;2022-12-24T08:12:42;9.50;84.40
3075;DHT22;1548;51.716;8.748;2022-12-24T08:15:10;9.50;84.40
3075;DHT22;1548;51.716;8.748;2022-12-24T08:17:36;9.50;84.40
3075;DHT22;1548;51.716;8.748;2022-12-24T08:20:02;9.50;84.50
3075;DHT22;1548;51.716;8.748;2022-12-24T08:22:28;9.50;84.50
3075;DHT22;1548;51.716;8.748;2022-12-24T08:24:54;9.50;84.40
3075;DHT22;1548;51.716;8.748;2022-12-24T08:27:19;9.50;84.60
3075;DHT22;1548;51.716;8.748;2022-12-24T08:29:45;9.60;84.50
3075;DHT22;1548;51.716;8.748;2022-12-24T08:32:11;9.50;84.60
3075;DHT22;1548;51.716;8.748;2022-12-24T08:34:36;9.50;84.50
3075;DHT22;1548;51.716;8.748;2022-12-24T08:37:02;9.50;84.60
3075;DHT22;1548;51.716;8.748;2022-12-24T08:39:27;9.50;84.60
3075;DHT22;1548;51.716;8.748;2022-12-24T08:41:53;9.50;84.50
3075;DHT22;1548;51.716;8.748;2022-12-24T08:44:19;9.60;84.60
3075;DHT22;1548;51.716;8.748;2022-12-24T08:46:44;9.60;84.50
3075;DHT22;1548;51.716;8.748;2022-12-24T08:49:10;9.60;84.40
3075;DHT22;1548;51.716;8.748;2022-12-24T08:51:36;9.60;84.70
3075;DHT22;1548;51.716;8.748;2022-12-24T08:54:02;9.70;84.50
3075;DHT22;1548;51.716;8.748;2022-12-24T08:56:27;9.70;84.50
3075;DHT22;1548;51.716;8.748;2022-12-24T08:58:53;9.80;84.50
3075;DHT22;1548;51.716;8.748;2022-12-24T09:01:19;9.80;84.80
3075;DHT22;1548;51.716;8.748;2022-12-24T09:03:46;9.80;84.40
3075;DHT22;1548;51.716;8.748;2022-12-24T09:06:12;9.80;84.50
3075;DHT22;1548;51.716;8.748;2022-12-24T09:08:38;9.70;84.30
3075;DHT22;1548;51.716;8.748;2022-12-24T09:11:04;9.70;84.30
3075;DHT22;1548;51.716;8.748;2022-12-24T09:13:30;9.70;84.30
3075;DHT22;1548;51.716;8.748;2022-12-24T09:15:56;9.70;84.20
3075;DHT22;1548;51.716;8.748;2022-12-24T09:18:22;9.60;84.20
3075;DHT22;1548;51.716;8.748;2022-12-24T09:20:47;9.60;84.40
3075;DHT22;1548;51.716;8.748;2022-12-24T09:23:13;9.60;84.30
3075;DHT22;1548;51.716;8.748;2022-12-24T09:25:42;9.60;84.40
3075;DHT22;1548;51.716;8.748;2022-12-24T09:28:08;9.50;84.40
3075;DHT22;1548;51.716;8.748;2022-12-24T09:30:34;9.60;84.40
3075;DHT22;1548;51.716;8.748;2022-12-24T09:32:59;9.60;84.40
3075;DHT22;1548;51.716;8.748;2022-12-24T09:35:25;9.60;84.30
3075;DHT22;1548;51.716;8.748;2022-12-24T09:37:50;9.60;84.50
3075;DHT22;1548;51.716;8.748;2022-12-24T09:40:37;9.60;84.60
3075;DHT22;1548;51.716;8.748;2022-12-24T09:43:16;9.60;84.50
3075;DHT22;1548;51.716;8.748;2022-12-24T09:46:08;9.70;84.40
3075;DHT22;1548;51.716;8.748;2022-12-24T09:48:40;9.70;84.50
3075;DHT22;1548;51.716;8.748;2022-12-24T09:51:11;9.80;84.50
3075;DHT22;1548;51.716;8.748;2022-12-24T09:53:47;9.80;84.40
3075;DHT22;1548;51.716;8.748;2022-12-24T09:56:26;9.80;84.40
3075;DHT22;1548;51.716;8.748;2022-12-24T09:58:59;9.80;84.40
3075;DHT22;1548;51.716;8.748;2022-12-24T10:01:28;9.80;84.40
3075;DHT22;1548;51.716;8.748;2022-12-24T10:03:54;9.80;84.40
3075;DHT22;1548;51.716;8.748;2022-12-24T10:06:23;9.80;84.50
3075;DHT22;1548;51.716;8.748;2022-12-24T10:22:33;10.00;84.40
3075;DHT22;1548;51.716;8.748;2022-12-24T10:27:54;10.00;84.60
3075;DHT22;1548;51.716;8.748;2022-12-24T10:30:22;10.10;84.40
3075;DHT22;1548;51.716;8.748;2022-12-24T10:32:53;10.20;84.40
3075;DHT22;1548;51.716;8.748;2022-12-24T10:35:25;10.30;84.30
3075;DHT22;1548;51.716;8.748;2022-12-24T10:37:52;10.30;84.10
3075;DHT22;1548;51.716;8.748;2022-12-24T10:40:39;10.40;84.00
3075;DHT22;1548;51.716;8.748;2022-12-24T10:43:18;10.40;84.00
3075;DHT22;1548;51.716;8.748;2022-12-24T10:45:47;10.50;84.10
3075;DHT22;1548;51.716;8.748;2022-12-24T10:48:41;10.50;84.00
3075;DHT22;1548;51.716;8.748;2022-12-24T10:51:19;10.40;83.90
3075;DHT22;1548;51.716;8.748;2022-12-24T10:53:48;10.50;84.10
3075;DHT22;1548;51.716;8.748;2022-12-24T10:56:17;10.50;83.80
3075;DHT22;1548;51.716;8.748;2022-12-24T10:58:45;10.50;83.90
3075;DHT22;1548;51.716;8.748;2022-12-24T11:01:15;10.40;83.90
3075;DHT22;1548;51.716;8.748;2022-12-24T11:03:41;10.40;83.80
3075;DHT22;1548;51.716;8.748;2022-12-24T11:06:15;10.40;84.10
3075;DHT22;1548;51.716;8.748;2022-12-24T11:08:45;10.50;84.10
3075;DHT22;1548;51.716;8.748;2022-12-24T11:11:19;10.40;83.90
3075;DHT22;1548;51.716;8.748;2022-12-24T11:13:54;10.40;84.00
3075;DHT22;1548;51.716;8.748;2022-12-24T11:16:31;10.50;84.20
3075;DHT22;1548;51.716;8.748;2022-12-24T11:19:00;10.50;83.80
3075;DHT22;1548;51.716;8.748;2022-12-24T11:21:29;10.60;83.90
3075;DHT22;1548;51.716;8.748;2022-12-24T11:24:25;10.60;83.70
3075;DHT22;1548;51.716;8.748;2022-12-24T11:26:48;10.60;83.90
3075;DHT22;1548;51.716;8.748;2022-12-24T11:31:42;10.80;83.70
3075;DHT22;1548;51.716;8.748;2022-12-24T11:34:31;10.80;83.80
3075;DHT22;1548;51.716;8.748;2022-12-24T11:37:26;10.90;83.90
3075;DHT22;1548;51.716;8.748;2022-12-24T11:39:52;10.80;83.70
3075;DHT22;1548;51.716;8.748;2022-12-24T11:42:25;10.80;83.80
3075;DHT22;1548;51.716;8.748;2022-12-24T11:44:54;10.80;83.60
3075;DHT22;1548;51.716;8.748;2022-12-24T11:47:36;10.80;83.80
3075;DHT22;1548;51.716;8.748;2022-12-24T11:50:20;10.80;83.60
3075;DHT22;1548;51.716;8.748;2022-12-24T11:52:51;10.80;83.70
3075;DHT22;1548;51.716;8.748;2022-12-24T11:55:44;10.80;83.70
3075;DHT22;1548;51.716;8.748;2022-12-24T11:58:32;10.90;83.70
3075;DHT22;1548;51.716;8.748;2022-12-24T12:03:52;10.90;83.60
3075;DHT22;1548;51.716;8.748;2022-12-24T12:06:46;11.00;83.60
3075;DHT22;1548;51.716;8.748;2022-12-24T12:09:43;11.10;83.60
3075;DHT22;1548;51.716;8.748;2022-12-24T12:12:18;11.10;83.60
3075;DHT22;1548;51.716;8.748;2022-12-24T12:14:49;10.80;83.30
3075;DHT22;1548;51.716;8.748;2022-12-24T12:17:27;10.70;83.50
3075;DHT22;1548;51.716;8.748;2022-12-24T12:20:46;10.70;83.50
3075;DHT22;1548;51.716;8.748;2022-12-24T12:28:06;10.70;83.50
3075;DHT22;1548;51.716;8.748;2022-12-24T12:30:36;10.70;83.50
3075;DHT22;1548;51.716;8.748;2022-12-24T12:36:10;10.80;83.50
3075;DHT22;1548;51.716;8.748;2022-12-24T12:38:37;10.80;83.60
3075;DHT22;1548;51.716;8.748;2022-12-24T12:47:15;10.70;83.60
3075;DHT22;1548;51.716;8.748;2022-12-24T12:49:51;10.70;83.40
3075;DHT22;1548;51.716;8.748;2022-12-24T12:57:59;10.80;83.50
3075;DHT22;1548;51.716;8.748;2022-12-24T13:00:28;10.80;83.40
3075;DHT22;1548;51.716;8.748;2022-12-24T13:18:56;11.10;83.30
3075;DHT22;1548;51.716;8.748;2022-12-24T13:21:25;10.90;83.20
3075;DHT22;1548;51.716;8.748;2022-12-24T13:24:05;10.80;83.40
3075;DHT22;1548;51.716;8.748;2022-12-24T13:26:31;10.80;83.40
3075;DHT22;1548;51.716;8.748;2022-12-24T13:29:30;10.80;83.70
3075;DHT22;1548;51.716;8.748;2022-12-24T13:32:35;10.80;83.50
3075;DHT22;1548;51.716;8.748;2022-12-24T13:35:26;10.80;83.30
3075;DHT22;1548;51.716;8.748;2022-12-24T13:37:50;10.80;83.30
3075;DHT22;1548;51.716;8.748;2022-12-24T13:40:26;10.80;83.40
3075;DHT22;1548;51.716;8.748;2022-12-24T13:50:47;10.90;83.00
3075;DHT22;1548;51.716;8.748;2022-12-24T13:53:22;10.90;83.20
3075;DHT22;1548;51.716;8.748;2022-12-24T13:55:55;10.90;83.10
3075;DHT22;1548;51.716;8.748;2022-12-24T13:58:23;11.00;83.10
3075;DHT22;1548;51.716;8.748;2022-12-24T14:00:58;11.00;83.20
3075;DHT22;1548;51.716;8.748;2022-12-24T14:06:05;10.90;83.20
3075;DHT22;1548;51.716;8.748;2022-12-24T14:08:39;11.00;83.10
3075;DHT22;1548;51.716;8.748;2022-12-24T14:11:13;11.00;83.00
3075;DHT22;1548;51.716;8.748;2022-12-24T14:16:11;10.70;82.90
3075;DHT22;1548;51.716;8.748;2022-12-24T14:18:40;10.70;83.10
3075;DHT22;1548;51.716;8.748;2022-12-24T14:21:13;10.70;83.20
3075;DHT22;1548;51.716;8.748;2022-12-24T14:26:14;10.60;83.30
3075;DHT22;1548;51.716;8.748;2022-12-24T14:28:48;10.60;83.20
3075;DHT22;1548;51.716;8.748;2022-12-24T14:31:18;10.50;83.30
3075;DHT22;1548;51.716;8.748;2022-12-24T14:33:44;10.40;83.20
3075;DHT22;1548;51.716;8.748;2022-12-24T14:36:11;10.40;83.20
3075;DHT22;1548;51.716;8.748;2022-12-24T14:38:41;10.40;83.30
3075;DHT22;1548;51.716;8.748;2022-12-24T14:41:32;10.40;83.40
3075;DHT22;1548;51.716;8.748;2022-12-24T14:46:55;10.30;83.50
3075;DHT22;1548;51.716;8.748;2022-12-24T14:52:16;10.30;83.50
3075;DHT22;1548;51.716;8.748;2022-12-24T14:54:44;10.30;83.10
3075;DHT22;1548;51.716;8.748;2022-12-24T14:59:54;10.30;83.10
3075;DHT22;1548;51.716;8.748;2022-12-24T15:02:36;10.20;83.00
3075;DHT22;1548;51.716;8.748;2022-12-24T15:05:15;10.10;83.10
3075;DHT22;1548;51.716;8.748;2022-12-24T15:08:08;10.10;83.20
3075;DHT22;1548;51.716;8.748;2022-12-24T15:10:39;10.10;83.20
3075;DHT22;1548;51.716;8.748;2022-12-24T15:13:29;10.10;83.30
3075;DHT22;1548;51.716;8.748;2022-12-24T15:15:56;10.00;83.30
3075;DHT22;1548;51.716;8.748;2022-12-24T15:18:25;10.00;83.50
3075;DHT22;1548;51.716;8.748;2022-12-24T15:20:53;10.00;83.40
3075;DHT22;1548;51.716;8.748;2022-12-24T15:23:26;10.00;83.40
3075;DHT22;1548;51.716;8.748;2022-12-24T15:28:41;10.00;83.40
3075;DHT22;1548;51.716;8.748;2022-12-24T15:31:12;9.90;83.40
3075;DHT22;1548;51.716;8.748;2022-12-24T15:33:38;9.90;83.40
3075;DHT22;1548;51.716;8.748;2022-12-24T15:36:05;9.80;83.40
3075;DHT22;1548;51.716;8.748;2022-12-24T15:38:59;9.80;83.50
3075;DHT22;1548;51.716;8.748;2022-12-24T15:41:30;9.80;83.50
3075;DHT22;1548;51.716;8.748;2022-12-24T15:44:01;9.80;83.60
3075;DHT22;1548;51.716;8.748;2022-12-24T15:46:29;9.70;83.50
3075;DHT22;1548;51.716;8.748;2022-12-24T15:48:57;9.60;83.60
3075;DHT22;1548;51.716;8.748;2022-12-24T15:51:26;9.50;83.80
3075;DHT22;1548;51.716;8.748;2022-12-24T15:53:57;9.30;83.60
3075;DHT22;1548;51.716;8.748;2022-12-24T15:56:36;9.40;83.90
3075;DHT22;1548;51.716;8.748;2022-12-24T15:59:24;9.30;83.70
3075;DHT22;1548;51.716;8.748;2022-12-24T16:01:51;9.20;83.90
3075;DHT22;1548;51.716;8.748;2022-12-24T16:04:25;9.30;83.90
3075;DHT22;1548;51.716;8.748;2022-12-24T16:06:59;9.30;84.00
3075;DHT22;1548;51.716;8.748;2022-12-24T16:09:47;9.30;83.90
3075;DHT22;1548;51.716;8.748;2022-12-24T16:12:23;9.20;83.90
3075;DHT22;1548;51.716;8.748;2022-12-24T16:14:55;9.20;83.90
3075;DHT22;1548;51.716;8.748;2022-12-24T16:17:27;9.20;84.10
3075;DHT22;1548;51.716;8.748;2022-12-24T16:19:57;9.20;84.00
3075;DHT22;1548;51.716;8.748;2022-12-24T16:22:25;9.20;84.00
3075;DHT22;1548;51.716;8.748;2022-12-24T16:25:42;9.20;84.00
3075;DHT22;1548;51.716;8.748;2022-12-24T16:27:43;9.10;83.90
3075;DHT22;1548;51.716;8.748;2022-12-24T16:30:10;9.10;83.90
3075;DHT22;1548;51.716;8.748;2022-12-24T16:32:36;9.00;83.90
3075;DHT22;1548;51.716;8.748;2022-12-24T16:35:05;8.90;84.00
3075;DHT22;1548;51.716;8.748;2022-12-24T16:37:32;8.90;84.00
3075;DHT22;1548;51.716;8.748;2022-12-24T16:39:59;8.80;84.10
3075;DHT22;1548;51.716;8.748;2022-12-24T16:42:25;8.70;84.10
3075;DHT22;1548;51.716;8.748;2022-12-24T16:45:09;8.60;84.10
3075;DHT22;1548;51.716;8.748;2022-12-24T16:47:36;8.50;84.00
3075;DHT22;1548;51.716;8.748;2022-12-24T16:50:05;8.50;84.10
3075;DHT22;1548;51.716;8.748;2022-12-24T16:52:32;8.50;84.30
3075;DHT22;1548;51.716;8.748;2022-12-24T16:55:00;8.40;84.30
3075;DHT22;1548;51.716;8.748;2022-12-24T16:57:26;8.30;84.10
3075;DHT22;1548;51.716;8.748;2022-12-24T16:59:52;8.30;84.20
3075;DHT22;1548;51.716;8.748;2022-12-24T17:02:20;8.30;84.50
3075;DHT22;1548;51.716;8.748;2022-12-24T17:04:47;8.20;84.20
3075;DHT22;1548;51.716;8.748;2022-12-24T17:07:15;8.20;84.40
3075;DHT22;1548;51.716;8.748;2022-12-24T17:09:41;8.20;84.20
3075;DHT22;1548;51.716;8.748;2022-12-24T17:12:07;8.20;84.20
3075;DHT22;1548;51.716;8.748;2022-12-24T17:14:34;8.20;84.10
3075;DHT22;1548;51.716;8.748;2022-12-24T17:17:00;8.20;84.30
3075;DHT22;1548;51.716;8.748;2022-12-24T17:19:25;8.30;84.30
3075;DHT22;1548;51.716;8.748;2022-12-24T17:21:51;8.30;84.40
3075;DHT22;1548;51.716;8.748;2022-12-24T17:24:16;8.30;84.30
3075;DHT22;1548;51.716;8.748;2022-12-24T17:26:42;8.30;84.30
3075;DHT22;1548;51.716;8.748;2022-12-24T17:29:09;8.40;84.30
3075;DHT22;1548;51.716;8.748;2022-12-24T17:31:35;8.40;84.40
3075;DHT22;1548;51.716;8.748;2022-12-24T17:34:04;8.40;84.40
3075;DHT22;1548;51.716;8.748;2022-12-24T17:36:29;8.30;84.30
3075;DHT22;1548;51.716;8.748;2022-12-24T17:38:55;8.30;84.30
3075;DHT22;1548;51.716;8.748;2022-12-24T17:41:21;8.30;84.40
3075;DHT22;1548;51.716;8.748;2022-12-24T17:43:47;8.30;84.40
3075;DHT22;1548;51.716;8.748;2022-12-24T17:46:18;8.20;84.30
3075;DHT22;1548;51.716;8.748;2022-12-24T17:48:46;8.20;84.20
3075;DHT22;1548;51.716;8.748;2022-12-24T17:51:17;8.10;84.40
3075;DHT22;1548;51.716;8.748;2022-12-24T17:53:43;8.00;84.40
3075;DHT22;1548;51.716;8.748;2022-12-24T17:56:11;8.00;84.50
3075;DHT22;1548;51.716;8.748;2022-12-24T17:58:38;8.00;84.40
3075;DHT22;1548;51.716;8.748;2022-12-24T18:01:04;8.00;84.50
3075;DHT22;1548;51.716;8.748;2022-12-24T18:03:30;7.90;84.40
3075;DHT22;1548;51.716;8.748;2022-12-24T18:06:02;8.00;84.50
3075;DHT22;1548;51.716;8.748;2022-12-24T18:08:28;8.00;84.40
3075;DHT22;1548;51.716;8.748;2022-12-24T18:10:54;8.00;84.50
3075;DHT22;1548;51.716;8.748;2022-12-24T18:13:19;7.90;84.40
3075;DHT22;1548;51.716;8.748;2022-12-24T18:15:45;7.90;84.50
3075;DHT22;1548;51.716;8.748;2022-12-24T18:18:11;7.80;84.30
3075;DHT22;1548;51.716;8.748;2022-12-24T18:20:36;7.80;84.50
3075;DHT22;1548;51.716;8.748;2022-12-24T18:23:02;7.80;84.50
3075;DHT22;1548;51.716;8.748;2022-12-24T18:25:28;7.70;84.50